createdAt,value
2023-10-06T00:04:42.867Z,20.58
2023-10-06T00:09:45.341Z,18.17
2023-10-06T00:14:50.343Z,20.38
2023-10-06T00:19:53.538Z,21.40
2023-10-06T00:25:01.492Z,18.88
2023-10-06T00:30:13.183Z,21.85
2023-10-06T00:35:24.222Z,18.13
2023-10-06T00:40:26.839Z,21.67
2023-10-06T00:45:32.096Z,22.05
2023-10-06T00:50:35.159Z,18.67
2023-10-06T00:55:38.766Z,20.20
2023-10-06T01:00:41.226Z,19.15
2023-10-06T01:05:47.292Z,20.85
2023-10-06T01:10:52.765Z,20.42
2023-10-06T01:15:57.927Z,17.92
2023-10-06T01:21:10.901Z,22.02
2023-10-06T01:26:14.707Z,18.88
2023-10-06T01:31:20.737Z,19.00
2023-10-06T01:36:24.989Z,21.13
2023-10-06T01:41:28.109Z,18.60
2023-10-06T01:46:30.646Z,19.67
2023-10-06T01:51:37.273Z,22.00
2023-10-06T01:56:43.119Z,19.98
2023-10-06T02:01:45.439Z,17.33
2023-10-06T02:06:49.516Z,19.27
2023-10-06T02:11:51.730Z,19.30
2023-10-06T02:16:57.044Z,16.08
2023-10-06T02:21:59.765Z,21.98
2023-10-06T02:27:03.037Z,18.95
2023-10-06T02:32:08.908Z,16.58
2023-10-06T02:37:11.938Z,19.60
2023-10-06T02:42:15.913Z,17.83
2023-10-06T02:47:19.270Z,18.25
2023-10-06T02:52:24.148Z,17.23
2023-10-06T02:57:27.178Z,18.67
2023-10-06T03:02:29.636Z,16.83
2023-10-06T03:07:32.389Z,16.15
2023-10-06T03:12:34.809Z,18.48
2023-10-06T03:17:37.175Z,17.38
2023-10-06T03:22:40.179Z,17.23
2023-10-06T03:27:43.038Z,17.92
2023-10-06T03:32:50.724Z,22.20
2023-10-06T03:37:53.856Z,20.77
2023-10-06T03:43:06.180Z,20.60
2023-10-06T03:48:12.197Z,21.75
2023-10-06T03:53:16.503Z,17.13
2023-10-06T03:58:19.812Z,17.58
2023-10-06T04:03:23.134Z,20.20
2023-10-06T04:08:25.417Z,18.33
2023-10-06T04:13:27.918Z,20.17
2023-10-06T04:18:34.143Z,17.77
2023-10-06T04:23:42.921Z,18.65
2023-10-06T04:28:49.540Z,19.15
2023-10-06T04:33:52.670Z,20.83
2023-10-06T04:38:56.680Z,19.48
2023-10-06T04:44:03.723Z,18.35
2023-10-06T04:49:06.140Z,20.85
2023-10-06T04:54:09.890Z,19.17
2023-10-06T04:59:13.089Z,24.15
2023-10-06T05:04:15.389Z,21.65
2023-10-06T05:09:19.458Z,21.42
2023-10-06T05:14:21.796Z,19.52
2023-10-06T05:19:24.062Z,17.15
2023-10-06T05:24:26.250Z,25.58
2023-10-06T05:29:28.974Z,18.88
2023-10-06T05:34:31.345Z,17.15
2023-10-06T05:39:35.085Z,17.50
2023-10-06T05:44:41.557Z,15.48
2023-10-06T05:49:49.358Z,15.27
2023-10-06T05:54:51.585Z,16.83
2023-10-06T05:59:54.894Z,14.82
2023-10-06T06:04:59.510Z,15.77
2023-10-06T06:10:05.569Z,14.93
2023-10-06T06:15:09.532Z,13.32
2023-10-06T06:20:18.526Z,16.58
2023-10-06T06:25:23.066Z,15.00
2023-10-06T06:30:25.835Z,17.75
2023-10-06T06:35:28.044Z,14.98
2023-10-06T06:40:30.300Z,15.82
2023-10-06T06:45:37.680Z,17.77
2023-10-06T06:50:45.659Z,18.67
2023-10-06T06:55:47.944Z,15.13
2023-10-06T07:00:50.418Z,18.25
2023-10-06T07:05:52.722Z,13.65
2023-10-06T07:10:54.913Z,13.55
2023-10-06T07:15:57.169Z,11.75
2023-10-06T07:20:59.937Z,11.90
2023-10-06T07:26:02.430Z,13.15
2023-10-06T07:31:10.069Z,9.43
2023-10-06T07:36:15.734Z,15.52
2023-10-06T07:41:18.860Z,9.68
2023-10-06T07:46:21.122Z,8.55
2023-10-06T07:51:23.519Z,8.80
2023-10-06T07:56:26.425Z,5.00
2023-10-06T08:01:29.236Z,12.70
2023-10-06T08:06:33.493Z,7.00
2023-10-06T08:11:35.691Z,7.40
2023-10-06T08:16:38.711Z,10.07
2023-10-06T08:21:42.691Z,7.47
2023-10-06T08:26:45.152Z,8.35
2023-10-06T08:31:48.102Z,6.15
2023-10-06T08:36:50.401Z,4.57
2023-10-06T08:41:54.784Z,6.15
2023-10-06T08:47:02.179Z,7.35
2023-10-06T08:52:26.569Z,7.18
2023-10-06T08:57:32.688Z,4.88
2023-10-06T09:02:34.920Z,9.55
2023-10-06T09:07:37.354Z,9.05
2023-10-06T09:12:39.578Z,6.63
2023-10-06T09:17:42.234Z,6.20
2023-10-06T09:22:49.263Z,4.13
2023-10-06T09:28:03.388Z,5.55
2023-10-06T09:33:09.980Z,6.40
2023-10-06T09:38:15.302Z,4.75
2023-10-06T09:43:20.340Z,5.10
2023-10-06T09:48:35.459Z,5.35
2023-10-06T09:53:41.632Z,5.55
2023-10-06T09:58:46.586Z,6.75
2023-10-06T10:03:49.892Z,5.72
2023-10-06T10:08:56.342Z,6.32
2023-10-06T10:19:09.356Z,6.07
2023-10-06T10:24:50.110Z,7.82
2023-10-06T10:34:58.300Z,8.10
2023-10-06T10:40:01.047Z,6.95
2023-10-06T10:45:24.372Z,10.25
2023-10-06T10:50:50.026Z,4.20
2023-10-06T10:55:52.413Z,7.82
2023-10-06T11:01:19.188Z,5.50
2023-10-06T11:06:42.002Z,5.63
2023-10-06T11:11:44.711Z,4.53
2023-10-06T11:16:48.228Z,6.45
2023-10-06T11:21:50.568Z,5.20
2023-10-06T11:26:52.823Z,5.28
2023-10-06T11:31:55.208Z,8.23
2023-10-06T11:37:00.760Z,7.07
2023-10-06T11:42:21.699Z,5.65
2023-10-06T11:47:30.288Z,5.90
2023-10-06T11:52:32.904Z,7.05
2023-10-06T11:57:47.723Z,6.30
2023-10-06T12:02:51.807Z,6.25
2023-10-06T12:07:54.389Z,7.80
2023-10-06T12:12:56.742Z,6.40
2023-10-06T12:17:59.058Z,11.02
2023-10-06T12:23:01.360Z,7.18
2023-10-06T12:28:03.947Z,6.05
2023-10-06T12:33:06.234Z,9.38
2023-10-06T12:38:08.502Z,11.73
2023-10-06T12:43:10.733Z,12.00
2023-10-06T12:48:13.159Z,10.45
2023-10-06T12:53:15.488Z,11.20
2023-10-06T12:58:18.074Z,13.60
2023-10-06T13:03:21.096Z,11.63
2023-10-06T13:08:26.527Z,7.97
2023-10-06T13:13:28.772Z,8.32
2023-10-06T13:18:32.215Z,8.35
2023-10-06T13:23:34.417Z,8.05
2023-10-06T13:28:37.780Z,10.57
2023-10-06T13:33:41.531Z,9.63
2023-10-06T13:38:44.220Z,7.18
2023-10-06T13:43:47.626Z,10.20
2023-10-06T13:48:50.388Z,8.68
2023-10-06T13:53:52.957Z,12.68
2023-10-06T13:58:55.661Z,13.20
2023-10-06T14:03:58.697Z,12.52
2023-10-06T14:09:01.265Z,11.85
2023-10-06T14:14:24.512Z,12.52
2023-10-06T14:19:27.161Z,10.52
2023-10-06T14:24:36.133Z,9.95
2023-10-06T14:29:38.950Z,12.25
2023-10-06T14:35:14.116Z,14.25
2023-10-06T14:40:35.519Z,9.77
2023-10-06T14:45:56.500Z,11.52
2023-10-06T14:51:00.072Z,13.05
2023-10-06T14:56:03.717Z,13.50
2023-10-06T15:01:13.581Z,17.88
2023-10-06T15:06:16.522Z,15.95
2023-10-06T15:11:20.614Z,12.05
2023-10-06T15:16:23.693Z,10.60
2023-10-06T15:21:26.311Z,9.98
2023-10-06T15:26:28.983Z,12.30
2023-10-06T15:31:31.697Z,14.77
2023-10-06T15:36:34.356Z,10.80
2023-10-06T15:41:39.862Z,10.52
2023-10-06T15:46:43.370Z,15.68
2023-10-06T15:52:01.668Z,11.85
2023-10-06T15:57:05.877Z,9.05
2023-10-06T16:02:09.272Z,9.23
2023-10-06T16:07:13.220Z,11.70
2023-10-06T16:12:17.864Z,10.18
2023-10-06T16:17:21.950Z,12.70
2023-10-06T16:22:26.113Z,15.30
2023-10-06T16:27:31.997Z,13.95
2023-10-06T16:32:34.902Z,13.90
2023-10-06T16:37:37.841Z,13.63
2023-10-06T16:42:42.683Z,12.63
2023-10-06T16:47:49.524Z,14.25
2023-10-06T16:52:58.784Z,12.10
2023-10-06T16:58:02.829Z,13.65
2023-10-06T17:03:08.034Z,10.15
2023-10-06T17:08:10.844Z,13.02
2023-10-06T17:13:24.128Z,15.63
2023-10-06T17:18:27.694Z,13.90
2023-10-06T17:23:30.965Z,13.48
2023-10-06T17:28:33.599Z,13.35
2023-10-06T17:33:38.391Z,13.73
2023-10-06T17:38:41.281Z,13.25
2023-10-06T17:43:57.005Z,12.05
2023-10-06T17:48:59.686Z,13.73
2023-10-06T17:54:02.196Z,11.48
2023-10-06T17:59:04.910Z,14.25
2023-10-06T18:04:07.897Z,11.73
2023-10-06T18:09:12.086Z,11.52
2023-10-06T18:14:14.933Z,15.30
2023-10-06T18:19:17.659Z,16.10
2023-10-06T18:24:20.513Z,10.88
2023-10-06T18:29:24.552Z,13.77
2023-10-06T18:34:27.106Z,12.25
2023-10-06T18:39:31.098Z,15.45
2023-10-06T18:44:33.473Z,17.95
2023-10-06T18:49:36.051Z,16.73
2023-10-06T18:54:38.529Z,15.10
2023-10-06T18:59:41.009Z,14.30
2023-10-06T19:04:46.742Z,13.57
2023-10-06T19:09:49.772Z,13.80
2023-10-06T19:14:52.398Z,15.23
2023-10-06T19:19:54.734Z,14.80
2023-10-06T19:24:57.264Z,15.10
2023-10-06T19:29:59.542Z,12.63
2023-10-06T19:35:01.861Z,15.32
2023-10-06T19:40:14.104Z,13.02
2023-10-06T19:45:16.646Z,11.88
2023-10-06T19:50:20.177Z,10.15
2023-10-06T19:55:22.724Z,4.45
2023-10-06T20:00:27.935Z,8.93
2023-10-06T20:05:30.164Z,6.85
2023-10-06T20:10:32.769Z,4.70
2023-10-06T20:15:35.806Z,6.78
2023-10-06T20:20:38.046Z,5.55
2023-10-06T20:25:40.286Z,10.10
2023-10-06T20:30:42.821Z,6.25
2023-10-06T20:35:45.110Z,8.52
2023-10-06T20:40:47.842Z,9.50
2023-10-06T20:45:50.172Z,8.75
2023-10-06T20:50:52.452Z,12.88
2023-10-06T20:56:02.715Z,5.93
2023-10-06T21:01:07.001Z,7.18
2023-10-06T21:06:09.526Z,8.98
2023-10-06T21:11:14.230Z,6.75
2023-10-06T21:16:16.528Z,6.55
2023-10-06T21:21:18.922Z,8.93
2023-10-06T21:26:23.326Z,8.38
2023-10-06T21:31:25.777Z,6.43
2023-10-06T21:36:28.009Z,6.35
2023-10-06T21:41:30.240Z,7.15
2023-10-06T21:46:33.191Z,7.85
2023-10-06T21:51:35.359Z,10.10
2023-10-06T21:56:38.306Z,5.15
2023-10-06T22:01:40.727Z,4.57
2023-10-06T22:06:43.467Z,9.48
2023-10-06T22:11:49.106Z,8.68
2023-10-06T22:16:51.786Z,8.13
2023-10-06T22:21:54.048Z,8.50
2023-10-06T22:26:58.835Z,6.53
2023-10-06T22:32:01.311Z,5.63
2023-10-06T22:37:09.558Z,8.10
2023-10-06T22:42:22.664Z,6.57
2023-10-06T22:47:26.859Z,6.60
2023-10-06T22:52:29.203Z,7.60
2023-10-06T22:57:31.450Z,6.85
2023-10-06T23:02:33.741Z,7.40
2023-10-06T23:07:36.019Z,6.80
2023-10-06T23:12:39.248Z,6.63
2023-10-06T23:17:46.658Z,7.38
2023-10-06T23:22:54.709Z,7.30
2023-10-06T23:27:57.177Z,8.80
2023-10-06T23:33:00.387Z,7.75
2023-10-06T23:38:08.057Z,16.42
2023-10-06T23:43:10.453Z,7.15
2023-10-06T23:48:13.583Z,7.35
2023-10-06T23:53:18.238Z,7.88
2023-10-06T23:58:20.512Z,5.93
